• °C
  • Pobieranie danych...
wx


PRINT OUT SECTION, show »

TAF EPLB 121730Z 1218/1303 28004KT 9999 SCT030
TEMPO 1218/1221 4000 SHRA SCT009 BKN025CB
PROB40 TEMPO 1218/1220 2900 TSRA BKN014CB
BECMG 1219/1223 29013KT
TEMPO 1221/1303 30017G27KT=

TAF EPRA 120200Z NIL=

TAF EPSY 121730Z 1218/1303 23006KT CAVOK
TEMPO 1218/1221 5000 SHRA SCT014 BKN025CB
PROB40 TEMPO 1218/1221 VRB15G25KT 3000 -TSRA BKN020CB=

TAF AMD EPZG 121902Z 1219/1303 26008KT 9999 SCT030
TEMPO 1219/1222 28015G30KT 4000 TSRA BKN014CB
PROB40 TEMPO 1219/1221 2500 TSRA=



IMGW-PIB Sites